createdAt,value
2022-08-26T00:01:54.383Z,0.93
2022-08-26T00:04:25.341Z,0.93
2022-08-26T00:06:56.951Z,0.85
2022-08-26T00:09:26.013Z,0.90
2022-08-26T00:11:54.426Z,0.80
2022-08-26T00:14:27.059Z,0.82
2022-08-26T00:16:56.142Z,0.65
2022-08-26T00:19:24.073Z,0.70
2022-08-26T00:21:51.694Z,1.02
2022-08-26T00:24:21.011Z,0.73
2022-08-26T00:26:54.660Z,1.02
2022-08-26T00:29:22.397Z,0.70
2022-08-26T00:31:50.168Z,0.68
2022-08-26T00:34:19.520Z,0.90
2022-08-26T00:36:51.750Z,0.57
2022-08-26T00:39:20.401Z,0.88
2022-08-26T00:41:48.817Z,0.88
2022-08-26T00:44:17.399Z,1.08
2022-08-26T00:46:49.428Z,0.57
2022-08-26T00:49:25.887Z,1.00
2022-08-26T00:54:26.963Z,0.60
2022-08-26T00:57:08.714Z,0.95
2022-08-26T00:59:46.988Z,0.88
2022-08-26T01:02:20.959Z,0.90
2022-08-26T01:04:56.217Z,0.60
2022-08-26T01:07:30.293Z,0.90
2022-08-26T01:10:05.386Z,0.70
2022-08-26T01:12:40.262Z,0.93
2022-08-26T01:15:11.374Z,0.60
2022-08-26T01:17:41.136Z,0.90
2022-08-26T01:20:20.541Z,0.90
2022-08-26T01:23:01.639Z,1.00
2022-08-26T01:25:33.486Z,0.90
2022-08-26T01:28:05.868Z,1.02
2022-08-26T01:30:35.661Z,0.98
2022-08-26T01:33:06.858Z,1.08
2022-08-26T01:35:34.668Z,1.00
2022-08-26T01:38:02.722Z,0.90
2022-08-26T01:40:37.264Z,0.90
2022-08-26T01:43:08.551Z,0.98
2022-08-26T01:45:40.428Z,1.00
2022-08-26T01:48:14.456Z,1.05
2022-08-26T01:50:45.127Z,0.93
2022-08-26T01:53:16.804Z,0.82
2022-08-26T01:55:49.212Z,0.85
2022-08-26T01:58:54.162Z,0.80
2022-08-26T02:01:24.233Z,1.17
2022-08-26T02:04:11.026Z,0.70
2022-08-26T02:06:39.609Z,0.93
2022-08-26T02:09:08.261Z,1.10
2022-08-26T02:11:36.833Z,1.25
2022-08-26T02:14:35.899Z,1.27
2022-08-26T02:17:12.179Z,1.00
2022-08-26T02:19:45.268Z,0.80
2022-08-26T02:22:16.673Z,1.10
2022-08-26T02:24:52.749Z,1.23
2022-08-26T02:27:24.599Z,1.50
2022-08-26T02:29:59.569Z,1.13
2022-08-26T02:32:28.959Z,1.13
2022-08-26T02:34:56.475Z,1.08
2022-08-26T02:37:28.538Z,1.20
2022-08-26T02:39:56.420Z,1.30
2022-08-26T02:42:24.585Z,0.90
2022-08-26T02:44:52.439Z,1.10
2022-08-26T02:47:20.041Z,1.00
2022-08-26T02:49:52.686Z,1.10
2022-08-26T02:52:20.304Z,1.00
2022-08-26T02:54:49.613Z,1.00
2022-08-26T02:57:18.006Z,0.98
2022-08-26T02:59:45.691Z,1.00
2022-08-26T03:02:13.286Z,0.90
2022-08-26T03:04:41.322Z,1.27
2022-08-26T03:07:25.933Z,1.10
2022-08-26T03:09:53.545Z,1.02
2022-08-26T03:12:22.134Z,0.95
2022-08-26T03:14:49.631Z,1.10
2022-08-26T03:17:17.282Z,1.45
2022-08-26T03:19:44.803Z,0.95
2022-08-26T03:22:12.573Z,0.90
2022-08-26T03:24:46.057Z,0.88
2022-08-26T03:27:14.432Z,0.80
2022-08-26T03:30:00.641Z,0.50
2022-08-26T03:32:28.820Z,0.80
2022-08-26T03:34:56.613Z,0.95
2022-08-26T03:37:24.138Z,0.80
2022-08-26T03:39:51.816Z,0.90
2022-08-26T03:42:21.458Z,0.45
2022-08-26T03:44:49.770Z,0.90
2022-08-26T03:47:18.631Z,0.68
2022-08-26T03:49:46.208Z,0.85
2022-08-26T03:52:13.902Z,0.85
2022-08-26T03:54:41.840Z,0.80
2022-08-26T03:57:11.056Z,0.77
2022-08-26T03:59:38.635Z,0.82
2022-08-26T04:02:11.557Z,0.90
2022-08-26T04:04:39.843Z,0.80
2022-08-26T04:07:07.918Z,0.52
2022-08-26T04:09:35.892Z,0.75
2022-08-26T04:12:04.412Z,0.70
2022-08-26T04:14:32.564Z,0.80
2022-08-26T04:17:00.109Z,0.68
2022-08-26T04:19:27.761Z,0.80
2022-08-26T04:21:55.304Z,0.88
2022-08-26T04:24:24.718Z,0.77
2022-08-26T04:26:52.539Z,0.70
2022-08-26T04:29:24.058Z,0.90
2022-08-26T04:31:55.520Z,1.23
2022-08-26T04:34:28.465Z,0.90
2022-08-26T04:36:58.078Z,0.57
2022-08-26T04:39:27.748Z,0.88
2022-08-26T04:41:55.757Z,0.80
2022-08-26T04:44:28.115Z,0.90
2022-08-26T04:46:56.580Z,1.00
2022-08-26T04:49:24.428Z,1.23
2022-08-26T04:51:53.957Z,0.90
2022-08-26T04:54:22.503Z,0.80
2022-08-26T04:56:50.800Z,1.10
2022-08-26T04:59:18.491Z,1.20
2022-08-26T05:01:51.619Z,0.80
2022-08-26T05:04:20.569Z,0.70
2022-08-26T05:06:49.022Z,0.93
2022-08-26T05:09:18.676Z,0.63
2022-08-26T05:11:48.529Z,0.70
2022-08-26T05:14:23.288Z,0.85
2022-08-26T05:16:51.706Z,0.80
2022-08-26T05:19:19.599Z,0.73
2022-08-26T05:21:48.729Z,0.75
2022-08-26T05:24:17.241Z,0.60
2022-08-26T05:26:45.611Z,0.98
2022-08-26T05:29:14.117Z,1.08
2022-08-26T05:31:43.100Z,0.52
2022-08-26T05:34:10.656Z,0.73
2022-08-26T05:36:38.950Z,0.82
2022-08-26T05:39:07.618Z,0.70
2022-08-26T05:41:41.150Z,0.50
2022-08-26T05:44:14.005Z,0.88
2022-08-26T05:46:42.664Z,0.80
2022-08-26T05:49:14.030Z,0.70
2022-08-26T05:51:45.172Z,0.80
2022-08-26T05:54:14.207Z,1.00
2022-08-26T05:56:49.349Z,0.85
2022-08-26T05:59:16.872Z,1.00
2022-08-26T06:01:51.597Z,1.25
2022-08-26T06:04:20.054Z,1.05
2022-08-26T06:06:47.907Z,0.90
2022-08-26T06:09:17.492Z,1.05
2022-08-26T06:11:45.881Z,0.70
2022-08-26T06:14:13.565Z,0.90
2022-08-26T06:16:44.831Z,1.10
2022-08-26T06:19:15.569Z,1.00
2022-08-26T06:21:51.372Z,0.75
2022-08-26T06:24:40.217Z,0.88
2022-08-26T06:27:11.457Z,0.70
2022-08-26T06:29:40.369Z,0.70
2022-08-26T06:32:08.801Z,1.00
2022-08-26T06:34:36.640Z,0.73
2022-08-26T06:37:06.515Z,0.68
2022-08-26T06:39:34.500Z,0.82
2022-08-26T06:42:03.251Z,0.70
2022-08-26T06:44:34.854Z,0.68
2022-08-26T06:47:02.377Z,0.70
2022-08-26T06:49:30.021Z,0.63
2022-08-26T06:51:58.716Z,0.82
2022-08-26T06:54:28.433Z,1.05
2022-08-26T06:56:57.228Z,0.80
2022-08-26T06:59:28.168Z,0.50
2022-08-26T07:01:55.810Z,0.73
2022-08-26T07:04:25.055Z,0.65
2022-08-26T07:06:55.783Z,0.60
2022-08-26T07:09:26.451Z,0.70
2022-08-26T07:11:56.367Z,0.70
2022-08-26T07:14:26.211Z,0.80
2022-08-26T07:16:54.330Z,0.50
2022-08-26T07:19:28.988Z,0.82
2022-08-26T07:22:04.984Z,0.80
2022-08-26T07:24:35.131Z,0.60
2022-08-26T07:27:08.577Z,0.70
2022-08-26T07:29:39.006Z,0.80
2022-08-26T07:32:07.832Z,0.63
2022-08-26T07:34:37.785Z,0.70
2022-08-26T07:37:06.070Z,0.63
2022-08-26T07:39:36.599Z,0.73
2022-08-26T07:42:07.730Z,0.70
2022-08-26T07:44:39.826Z,0.50
2022-08-26T07:47:10.415Z,0.57
2022-08-26T07:49:55.107Z,0.60
2022-08-26T07:52:26.769Z,0.55
2022-08-26T07:54:58.209Z,0.50
2022-08-26T07:57:27.151Z,0.57
2022-08-26T07:59:56.029Z,0.43
2022-08-26T08:02:25.488Z,0.60
2022-08-26T08:04:53.626Z,0.50
2022-08-26T08:07:25.861Z,0.60
2022-08-26T08:10:13.580Z,0.85
2022-08-26T08:12:42.101Z,0.50
2022-08-26T08:15:13.766Z,0.52
2022-08-26T08:17:43.550Z,0.82
2022-08-26T08:20:13.264Z,0.50
2022-08-26T08:22:43.053Z,0.50
2022-08-26T08:25:12.184Z,0.40
2022-08-26T08:27:43.284Z,0.50
2022-08-26T08:30:13.746Z,0.35
2022-08-26T08:32:43.759Z,0.40
2022-08-26T08:35:14.198Z,0.40
2022-08-26T08:37:43.751Z,0.30
2022-08-26T08:40:18.437Z,0.25
2022-08-26T08:45:35.890Z,0.25
2022-08-26T08:48:27.326Z,0.28
2022-08-26T08:51:30.129Z,0.40
2022-08-26T08:53:59.679Z,0.30
2022-08-26T08:56:42.758Z,0.28
2022-08-26T08:59:20.295Z,0.20
2022-08-26T09:01:54.069Z,0.17
2022-08-26T09:04:55.667Z,0.13
2022-08-26T09:07:47.149Z,0.20
2022-08-26T09:10:24.553Z,0.17
2022-08-26T09:12:52.895Z,0.20
2022-08-26T09:15:23.960Z,0.10
2022-08-26T09:17:54.190Z,0.40
2022-08-26T09:20:48.445Z,0.30
2022-08-26T09:23:17.222Z,0.22
2022-08-26T09:25:51.861Z,0.10
2022-08-26T09:28:23.408Z,0.57
2022-08-26T09:31:14.906Z,0.75
2022-08-26T09:33:43.407Z,0.90
2022-08-26T09:36:17.057Z,0.80
2022-08-26T09:38:45.090Z,0.80
2022-08-26T09:41:42.301Z,0.77
2022-08-26T09:44:17.820Z,1.10
2022-08-26T09:47:07.440Z,1.00
2022-08-26T09:49:40.275Z,0.70
2022-08-26T09:52:13.873Z,0.93
2022-08-26T09:54:44.400Z,0.93
2022-08-26T09:57:27.589Z,0.82
2022-08-26T09:59:56.553Z,0.57
2022-08-26T10:02:32.862Z,0.77
2022-08-26T10:05:09.545Z,0.80
2022-08-26T10:07:51.297Z,0.80
2022-08-26T10:10:26.344Z,0.70
2022-08-26T10:13:04.393Z,0.70
2022-08-26T10:15:41.786Z,0.70
2022-08-26T10:18:22.082Z,0.70
2022-08-26T10:21:07.563Z,0.60
2022-08-26T10:26:32.580Z,0.90
2022-08-26T10:29:10.610Z,0.77
2022-08-26T10:32:03.614Z,0.73
2022-08-26T10:34:34.475Z,0.70
2022-08-26T10:37:15.773Z,0.85
2022-08-26T10:39:58.537Z,0.77
2022-08-26T10:42:45.530Z,0.98
2022-08-26T10:45:22.096Z,1.05
2022-08-26T10:47:55.795Z,0.80
2022-08-26T10:50:30.969Z,0.93
2022-08-26T10:53:15.412Z,0.80
2022-08-26T10:56:04.552Z,0.80
2022-08-26T10:58:46.856Z,0.95
2022-08-26T11:01:44.300Z,0.98
2022-08-26T11:04:48.383Z,1.00
2022-08-26T11:07:36.682Z,1.00
2022-08-26T11:10:24.481Z,1.00
2022-08-26T11:13:01.206Z,1.13
2022-08-26T11:15:29.536Z,0.90
2022-08-26T11:18:10.214Z,0.95
2022-08-26T11:20:41.811Z,0.80
2022-08-26T11:23:12.571Z,0.80
2022-08-26T11:26:01.141Z,1.13
2022-08-26T11:28:44.908Z,1.00
2022-08-26T11:31:25.395Z,0.70
2022-08-26T11:34:07.190Z,1.25
2022-08-26T11:36:57.679Z,0.82
2022-08-26T11:39:36.911Z,0.73
2022-08-26T11:42:35.151Z,1.08
2022-08-26T11:45:16.421Z,0.90
2022-08-26T11:47:44.788Z,0.70
2022-08-26T11:50:23.551Z,0.82
2022-08-26T11:53:02.437Z,0.90
2022-08-26T11:55:32.062Z,0.90
2022-08-26T11:58:04.838Z,1.10
2022-08-26T12:00:58.234Z,0.90
2022-08-26T12:03:36.175Z,0.80
2022-08-26T12:06:24.383Z,1.02
2022-08-26T12:08:54.550Z,0.82
2022-08-26T12:11:31.111Z,1.08
2022-08-26T12:14:08.787Z,1.10
2022-08-26T12:16:39.434Z,0.80
2022-08-26T12:19:32.774Z,1.00
2022-08-26T12:22:23.723Z,1.13
2022-08-26T12:25:07.565Z,1.10
2022-08-26T12:27:42.789Z,0.90
2022-08-26T12:30:15.100Z,0.80
2022-08-26T12:33:22.506Z,0.80
2022-08-26T12:35:56.576Z,0.73
2022-08-26T12:38:26.292Z,0.95
2022-08-26T12:40:54.228Z,1.05
2022-08-26T12:43:54.526Z,0.95
2022-08-26T12:46:28.443Z,0.98
2022-08-26T12:49:01.107Z,0.88
2022-08-26T12:51:31.411Z,0.93
2022-08-26T12:53:59.819Z,1.00
2022-08-26T12:56:45.494Z,1.13
2022-08-26T12:59:25.218Z,0.93
2022-08-26T13:01:53.712Z,0.98
2022-08-26T13:04:41.233Z,1.38
2022-08-26T13:07:25.202Z,1.30
2022-08-26T13:09:55.484Z,1.20
2022-08-26T13:12:35.387Z,0.98
2022-08-26T13:15:04.739Z,1.00
2022-08-26T13:17:32.428Z,1.00
2022-08-26T13:20:04.084Z,1.25
2022-08-26T13:22:32.334Z,1.20
2022-08-26T13:24:59.927Z,1.05
2022-08-26T13:27:28.016Z,1.38
2022-08-26T13:29:57.677Z,1.10
2022-08-26T13:32:27.341Z,1.08
2022-08-26T13:34:57.337Z,1.27
2022-08-26T13:37:35.456Z,1.23
2022-08-26T13:40:06.441Z,0.88
2022-08-26T13:42:34.530Z,1.20
2022-08-26T13:45:02.543Z,1.20
2022-08-26T13:47:30.254Z,1.00
2022-08-26T13:49:57.998Z,0.82
2022-08-26T13:52:30.591Z,1.00
2022-08-26T13:55:00.637Z,0.80
2022-08-26T13:57:30.157Z,1.08
2022-08-26T13:59:59.483Z,1.30
2022-08-26T14:02:28.364Z,1.13
2022-08-26T14:04:56.277Z,0.98
2022-08-26T14:07:24.405Z,0.90
2022-08-26T14:09:52.447Z,0.85
2022-08-26T14:12:20.064Z,0.70
2022-08-26T14:14:48.211Z,0.80
2022-08-26T14:17:21.178Z,0.90
2022-08-26T14:19:50.429Z,0.80
2022-08-26T14:22:19.723Z,0.63
2022-08-26T14:24:47.739Z,0.60
2022-08-26T14:27:15.471Z,0.80
2022-08-26T14:29:43.240Z,0.70
2022-08-26T14:32:21.557Z,0.85
2022-08-26T14:34:50.271Z,0.70
2022-08-26T14:37:18.622Z,0.85
2022-08-26T14:39:46.639Z,0.70
2022-08-26T14:42:16.932Z,1.00
2022-08-26T14:44:48.339Z,1.17
2022-08-26T14:47:15.931Z,0.70
2022-08-26T14:49:43.552Z,0.80
2022-08-26T14:52:11.517Z,0.90
2022-08-26T14:54:39.066Z,1.13
2022-08-26T14:57:09.314Z,1.17
2022-08-26T14:59:42.562Z,1.17
2022-08-26T15:02:27.811Z,1.00
2022-08-26T15:05:01.455Z,0.95
2022-08-26T15:07:29.095Z,1.00
2022-08-26T15:09:59.464Z,1.10
2022-08-26T15:12:27.803Z,1.25
2022-08-26T15:14:55.356Z,1.33
2022-08-26T15:17:23.432Z,1.10
2022-08-26T15:19:51.211Z,1.17
2022-08-26T15:22:18.825Z,1.27
2022-08-26T15:24:46.572Z,1.45
2022-08-26T15:27:14.285Z,1.30
2022-08-26T15:29:41.949Z,1.27
2022-08-26T15:32:09.784Z,1.10
2022-08-26T15:34:37.472Z,1.40
2022-08-26T15:37:06.153Z,1.25
2022-08-26T15:39:34.477Z,1.27
2022-08-26T15:42:02.818Z,1.33
2022-08-26T15:44:30.473Z,1.45
2022-08-26T15:46:59.091Z,1.35
2022-08-26T15:49:27.714Z,0.95
2022-08-26T15:51:55.467Z,1.35
2022-08-26T15:54:23.807Z,1.38
2022-08-26T15:56:53.100Z,1.30
2022-08-26T15:59:22.765Z,1.23
2022-08-26T16:01:50.861Z,1.67
2022-08-26T16:04:18.738Z,1.40
2022-08-26T16:06:50.269Z,1.30
2022-08-26T16:09:19.895Z,1.42
2022-08-26T16:11:47.518Z,1.23
2022-08-26T16:14:17.899Z,1.38
2022-08-26T16:16:45.506Z,1.33
2022-08-26T16:19:13.111Z,1.40
2022-08-26T16:21:41.595Z,1.20
2022-08-26T16:24:09.788Z,1.02
2022-08-26T16:26:38.997Z,1.30
2022-08-26T16:29:09.508Z,1.30
2022-08-26T16:31:38.396Z,1.10
2022-08-26T16:34:07.691Z,1.25
2022-08-26T16:36:37.456Z,1.10
2022-08-26T16:39:06.483Z,1.00
2022-08-26T16:41:34.151Z,0.80
2022-08-26T16:44:01.856Z,0.93
2022-08-26T16:46:29.562Z,1.25
2022-08-26T16:48:58.554Z,1.10
2022-08-26T16:51:27.976Z,1.02
2022-08-26T16:53:57.468Z,0.90
2022-08-26T16:56:33.491Z,1.27
2022-08-26T16:59:04.874Z,1.38
2022-08-26T17:01:32.739Z,1.00
2022-08-26T17:04:00.411Z,1.30
2022-08-26T17:06:27.957Z,1.17
2022-08-26T17:08:55.619Z,1.40
2022-08-26T17:11:23.131Z,1.10
2022-08-26T17:13:50.734Z,0.80
2022-08-26T17:16:19.155Z,1.20
2022-08-26T17:18:48.019Z,1.10
2022-08-26T17:21:15.617Z,1.27
2022-08-26T17:23:44.253Z,1.65
2022-08-26T17:26:12.638Z,1.63
2022-08-26T17:28:40.577Z,1.27
2022-08-26T17:31:10.026Z,1.00
2022-08-26T17:33:38.189Z,1.25
2022-08-26T17:36:07.785Z,1.00
2022-08-26T17:38:36.464Z,1.20
2022-08-26T17:41:08.592Z,1.25
2022-08-26T17:43:36.638Z,1.10
2022-08-26T17:46:07.664Z,1.27
2022-08-26T17:48:39.920Z,1.30
2022-08-26T17:51:10.655Z,1.10
2022-08-26T17:53:38.730Z,1.20
2022-08-26T17:56:08.436Z,1.05
2022-08-26T17:58:36.711Z,1.02
2022-08-26T18:01:06.127Z,1.30
2022-08-26T18:03:35.254Z,1.00
2022-08-26T18:06:07.747Z,0.88
2022-08-26T18:08:35.344Z,0.90
2022-08-26T18:11:03.129Z,1.17
2022-08-26T18:13:30.721Z,0.98
2022-08-26T18:15:58.374Z,1.00
2022-08-26T18:18:26.007Z,0.90
2022-08-26T18:20:56.846Z,1.08
2022-08-26T18:23:31.492Z,1.00
2022-08-26T18:25:59.210Z,1.08
2022-08-26T18:28:26.777Z,1.10
2022-08-26T18:30:54.356Z,1.17
2022-08-26T18:33:25.134Z,1.10
2022-08-26T18:35:53.036Z,1.00
2022-08-26T18:38:20.596Z,0.93
2022-08-26T18:40:49.944Z,0.98
2022-08-26T18:43:17.480Z,1.05
2022-08-26T18:45:45.076Z,1.10
2022-08-26T18:48:12.998Z,1.00
2022-08-26T18:50:43.808Z,1.15
2022-08-26T18:53:13.415Z,0.82
2022-08-26T18:55:41.347Z,1.27
2022-08-26T18:58:09.079Z,0.93
2022-08-26T19:00:38.461Z,1.20
2022-08-26T19:03:06.001Z,0.85
2022-08-26T19:05:45.800Z,1.25
2022-08-26T19:08:13.553Z,0.90
2022-08-26T19:10:41.675Z,0.90
2022-08-26T19:13:09.871Z,1.00
2022-08-26T19:15:42.679Z,1.02
2022-08-26T19:18:11.710Z,1.20
2022-08-26T19:20:46.629Z,1.00
2022-08-26T19:23:30.941Z,1.40
2022-08-26T19:25:59.502Z,1.20
2022-08-26T19:28:27.095Z,1.42
2022-08-26T19:30:55.138Z,1.45
2022-08-26T19:33:22.669Z,1.08
2022-08-26T19:35:50.272Z,1.20
2022-08-26T19:38:17.945Z,1.33
2022-08-26T19:40:45.669Z,1.20
2022-08-26T19:43:13.271Z,0.95
2022-08-26T19:45:42.424Z,1.10
2022-08-26T19:48:11.365Z,1.02
2022-08-26T19:50:39.118Z,1.00
2022-08-26T19:53:06.603Z,1.30
2022-08-26T19:55:34.509Z,1.00
2022-08-26T19:58:02.148Z,1.00
2022-08-26T20:00:31.842Z,1.00
2022-08-26T20:02:59.986Z,1.10
2022-08-26T20:05:28.057Z,1.40
2022-08-26T20:07:55.721Z,1.10
2022-08-26T20:10:24.132Z,1.08
2022-08-26T20:12:52.406Z,0.85
2022-08-26T20:15:21.569Z,1.00
2022-08-26T20:17:49.889Z,1.10
2022-08-26T20:20:35.837Z,1.08
2022-08-26T20:23:04.473Z,1.20
2022-08-26T20:25:33.310Z,1.00
2022-08-26T20:28:01.379Z,1.00
2022-08-26T20:30:31.244Z,1.00
2022-08-26T20:32:59.005Z,0.77
2022-08-26T20:35:26.645Z,0.95
2022-08-26T20:37:54.226Z,0.90
2022-08-26T20:40:22.646Z,0.90
2022-08-26T20:42:50.238Z,1.15
2022-08-26T20:45:17.879Z,1.02
2022-08-26T20:47:45.463Z,0.90
2022-08-26T20:50:13.035Z,1.00
2022-08-26T20:52:40.717Z,1.17
2022-08-26T20:55:08.825Z,1.02
2022-08-26T20:57:37.366Z,0.82
2022-08-26T21:00:06.362Z,0.98
2022-08-26T21:02:34.911Z,0.98
2022-08-26T21:05:02.467Z,0.80
2022-08-26T21:07:30.257Z,0.70
2022-08-26T21:09:58.145Z,0.80
2022-08-26T21:12:27.243Z,0.98
2022-08-26T21:14:54.985Z,0.68
2022-08-26T21:17:22.770Z,0.70
2022-08-26T21:19:50.374Z,0.90
2022-08-26T21:22:17.892Z,1.08
2022-08-26T21:24:45.455Z,0.80
2022-08-26T21:27:13.506Z,1.02
2022-08-26T21:29:47.200Z,1.00
2022-08-26T21:32:16.610Z,1.00
2022-08-26T21:34:44.298Z,0.90
2022-08-26T21:37:15.408Z,1.17
2022-08-26T21:39:44.689Z,1.10
2022-08-26T21:42:12.311Z,1.10
2022-08-26T21:44:39.823Z,1.10
2022-08-26T21:47:07.517Z,1.10
2022-08-26T21:49:35.794Z,1.20
2022-08-26T21:52:04.641Z,1.17
2022-08-26T21:54:32.725Z,1.40
2022-08-26T21:57:00.361Z,1.10
2022-08-26T21:59:27.861Z,1.40
2022-08-26T22:01:56.216Z,1.20
2022-08-26T22:04:24.437Z,1.30
2022-08-26T22:06:54.612Z,1.20
2022-08-26T22:09:24.982Z,1.13
2022-08-26T22:11:53.224Z,0.88
2022-08-26T22:14:30.682Z,1.38
2022-08-26T22:16:59.963Z,1.40
2022-08-26T22:19:28.209Z,1.25
2022-08-26T22:21:55.976Z,1.02
2022-08-26T22:24:25.478Z,1.10
2022-08-26T22:26:54.220Z,0.82
2022-08-26T22:29:22.382Z,1.00
2022-08-26T22:31:49.990Z,0.90
2022-08-26T22:34:19.614Z,1.20
2022-08-26T22:36:49.395Z,0.80
2022-08-26T22:39:23.751Z,1.15
2022-08-26T22:41:52.378Z,1.08
2022-08-26T22:44:22.275Z,1.20
2022-08-26T22:46:54.198Z,1.35
2022-08-26T22:49:24.708Z,0.90
2022-08-26T22:51:52.409Z,1.10
2022-08-26T22:54:20.151Z,1.00
2022-08-26T22:56:47.758Z,1.10
2022-08-26T22:59:16.301Z,0.90
2022-08-26T23:01:44.889Z,1.00
2022-08-26T23:04:12.425Z,1.10
2022-08-26T23:06:43.293Z,1.15
2022-08-26T23:09:18.211Z,1.00
2022-08-26T23:11:47.801Z,1.27
2022-08-26T23:14:16.947Z,1.20
2022-08-26T23:16:45.023Z,1.13
2022-08-26T23:19:14.215Z,1.05
2022-08-26T23:21:42.082Z,1.23
2022-08-26T23:24:10.164Z,1.17
2022-08-26T23:26:38.839Z,1.30
2022-08-26T23:29:08.446Z,1.20
2022-08-26T23:31:38.693Z,1.20
2022-08-26T23:34:25.549Z,1.10
2022-08-26T23:36:53.294Z,1.40
2022-08-26T23:39:21.456Z,1.48
2022-08-26T23:41:49.121Z,1.95
2022-08-26T23:44:16.778Z,1.20
2022-08-26T23:46:44.300Z,1.67
2022-08-26T23:49:11.795Z,1.50
2022-08-26T23:51:58.024Z,1.30
2022-08-26T23:54:25.655Z,1.05
2022-08-26T23:56:53.361Z,1.15
2022-08-26T23:59:21.234Z,1.15
